Terminal Aerodrome Forecast
Issued by NWS

Home | Current Version | Previous Version | Text Only | Print | Product List | Glossary On
Versions: 1 2 3 4 5 6 7 8 9 10 11 12
000
FTUS42 KMLB 250533
TAFISM
TAF
KISM 250533Z 2506/2606 VRB02KT P6SM SKC
     FM251400 12005KT P6SM SCT030
     FM251800 14008KT P6SM VCTS SCT035CB BKN060
      TEMPO 2519/2522 3SM TSRA BKN020CB OVC040
     FM252300 17006KT P6SM SCT050 BKN100=

USA.gov is the U.S. government's official web portal to all federal, state and local government web resources and services.